ADDS METAR Data INFO
IDs: Format: Raw Decoded Include TAF

Data at: 0043 UTC 22 Oct 2017

KSFO 212356Z 27015KT 10SM FEW200 18/08 A3024 RMK AO2 SLP241 T01830083 10200 20150 53000
KSFO 212256Z 30011KT 10SM FEW200 19/08 A3023 RMK AO2 SLP238 T01940078
KSFO 212156Z 27013KT 10SM FEW200 19/07 A3024 RMK AO2 SLP239 T01940067
KSFO 212056Z 29011KT 10SM FEW200 19/05 A3024 RMK AO2 SLP241 T01890050 58008
KSFO 211956Z 31007KT 280V350 10SM FEW200 17/08 A3027 RMK AO2 SLP248 T01720083
KSFO 211856Z 03004KT 10SM FEW200 16/08 A3027 RMK AO2 SLP249 T01560083
KSFO 211756Z 06003KT 10SM FEW021 15/09 A3027 RMK AO2 SLP249 T01500089 10156 20106 53010
KSFO 211656Z VRB03KT 10SM FEW200 14/09 A3026 RMK AO2 SLP246 T01440089
KSFO 211556Z 00000KT 10SM SCT200 14/07 A3025 RMK AO2 SLP242 T01390072
KSFO 211456Z 28005KT 10SM SCT200 12/08 A3024 RMK AO2 SLP239 T01170083 51015
KSFO 211356Z 28007KT 10SM FEW200 11/08 A3023 RMK AO2 SLP235 T01110083
KSFO 211256Z 30005KT 9SM FEW007 11/08 A3021 RMK AO2 SLP230 T01110083
KSFO 211156Z 28005KT 10SM FEW007 11/08 A3020 RMK AO2 SLP225 T01110083 10133 20111 51007
KSFO 211056Z 29006KT 10SM FEW007 12/08 A3019 RMK AO2 SLP224 T01170083
KSFO 210956Z 25007KT 10SM FEW007 FEW180 12/08 A3019 RMK AO2 SLP224 T01170083
KSFO 210856Z 29007KT 10SM FEW007 FEW200 12/09 A3017 RMK AO2 SLP217 T01170089 50001
KSFO 210756Z 28009KT 10SM FEW008 SCT200 12/08 A3019 RMK AO2 SLP221 T01220083 401780122
KSFO 210656Z 28008KT 10SM FEW008 SCT200 13/08 A3019 RMK AO2 SLP222 T01280083
KSFO 210556Z 27011KT 10SM FEW008 BKN200 13/09 A3017 RMK AO2 SLP216 T01330089 10161 20128 53013
KSFO 210456Z 26011KT 10SM FEW008 SCT200 13/09 A3015 RMK AO2 SLP211 T01330094
KSFO 210356Z 28017KT 10SM FEW008 FEW200 13/09 A3014 RMK AO2 PK WND 27027/0329 SLP206 T01330094
KSFO 210256Z 27018KT 10SM FEW200 14/09 A3013 RMK AO2 SLP203 T01390089 53003
KSFO 210156Z 28016KT 10SM FEW017 FEW027 SCT200 14/09 A3013 RMK AO2 SLP203 T01390089
KSFO 210056Z 28015KT 10SM FEW020 FEW030 BKN200 15/09 A3012 RMK AO2 SLP199 T01500089
KSFO 202356Z 26014KT 10SM FEW023 FEW033 BKN200 16/08 A3012 RMK AO2 SLP200 T01560083 10178 20156 53001
KSFO 202256Z 29018KT 10SM FEW025 FEW035 BKN200 16/07 A3012 RMK AO2 SLP200 T01610072
KSFO 202156Z 27015KT 10SM FEW025 FEW037 BKN200 17/07 A3011 RMK AO2 SLP194 T01670072
KSFO 202056Z 27019G25KT 10SM FEW040 BKN180 17/07 A3012 RMK AO2 SLP199 T01720072 51005
KSFO 201956Z 27012G16KT 10SM FEW030 BKN120 17/07 A3012 RMK AO2 SLP197 T01670072
KSFO 201856Z 28009KT 10SM SCT030 BKN120 16/07 A3011 RMK AO2 SLP197 T01610072
KSFO 201756Z 30007KT 10SM BKN040 BKN120 16/09 A3011 RMK AO2 SLP194 T01610089 10161 20122 51018
KSFO 201656Z 23006KT 10SM SCT042 BKN120 15/09 A3009 RMK AO2 SLP191 T01500094
KSFO 201556Z 23004KT 10SM SCT040 BKN050 14/10 A3008 RMK AO2 SLP185 T01390100
KSFO 201456Z 29004KT 10SM BKN010 BKN120 13/10 A3005 RMK AO2 SLP176 T01280100 51015
KSFO 201429Z 24005KT 10SM BKN010 BKN120 13/10 A3005 RMK AO2 T01280100
KSFO 201356Z 23006KT 10SM FEW010 BKN120 13/10 A3003 RMK AO2 SLP170 T01280100
KSFO 201256Z 25008KT 10SM CLR 13/11 A3003 RMK AO2 PRESRR SLP169 T01280106